createdAt,value
2018-03-08T00:00:22.704Z,98.37
2018-03-08T00:01:53.718Z,98.53
2018-03-08T00:03:16.850Z,98.07
2018-03-08T00:04:48.257Z,97.65
2018-03-08T00:06:15.393Z,97.82
2018-03-08T00:07:42.535Z,97.89
2018-03-08T00:09:09.630Z,97.68
2018-03-08T00:10:36.844Z,97.64
2018-03-08T00:12:00.033Z,97.48
2018-03-08T00:13:27.230Z,97.09
2018-03-08T00:14:54.553Z,97.16
2018-03-08T00:16:21.743Z,97.12
2018-03-08T00:17:49.110Z,97.20
2018-03-08T00:19:16.262Z,97.26
2018-03-08T00:20:47.471Z,97.14
2018-03-08T00:22:14.643Z,96.94
2018-03-08T00:23:37.774Z,96.60
2018-03-08T00:25:04.891Z,96.35
2018-03-08T00:26:36.144Z,96.53
2018-03-08T00:28:03.241Z,96.06
2018-03-08T00:29:26.593Z,96.33
2018-03-08T00:30:53.708Z,96.48
2018-03-08T00:32:24.812Z,96.54
2018-03-08T00:33:52.101Z,96.52
2018-03-08T00:35:15.164Z,96.50
2018-03-08T00:36:46.325Z,96.78
2018-03-08T00:38:09.451Z,96.77
2018-03-08T00:39:36.644Z,96.53
2018-03-08T00:41:03.572Z,96.64
2018-03-08T00:42:34.817Z,96.68
2018-03-08T00:43:57.852Z,96.72
2018-03-08T00:45:24.999Z,97.28
2018-03-08T00:46:56.199Z,97.28
2018-03-08T00:48:19.347Z,97.02
2018-03-08T00:49:50.669Z,96.58
2018-03-08T00:51:17.854Z,96.13
2018-03-08T00:52:41.193Z,95.56
2018-03-08T00:54:12.162Z,95.62
2018-03-08T00:55:35.243Z,95.52
2018-03-08T00:57:02.400Z,95.42
2018-03-08T00:58:29.522Z,95.80
2018-03-08T00:59:56.631Z,95.54
2018-03-08T01:01:23.734Z,95.86
2018-03-08T01:02:54.761Z,96.27
2018-03-08T01:04:18.023Z,96.14
2018-03-08T01:05:49.223Z,96.26
2018-03-08T01:07:12.332Z,95.78
2018-03-08T01:08:39.314Z,95.80
2018-03-08T01:10:06.607Z,95.50
2018-03-08T01:11:37.649Z,95.64
2018-03-08T01:13:00.792Z,95.58
2018-03-08T01:14:28.199Z,95.27
2018-03-08T01:15:59.411Z,95.21
2018-03-08T01:17:22.472Z,95.59
2018-03-08T01:18:49.680Z,95.92
2018-03-08T01:20:20.675Z,95.83
2018-03-08T01:21:43.916Z,95.54
2018-03-08T01:23:11.125Z,95.59
2018-03-08T01:24:38.096Z,95.81
2018-03-08T01:26:05.233Z,95.52
2018-03-08T01:27:36.146Z,95.53
2018-03-08T01:28:59.329Z,95.40
2018-03-08T01:30:30.408Z,95.65
2018-03-08T01:33:24.794Z,95.24
2018-03-08T01:34:51.936Z,95.53
2018-03-08T01:36:15.041Z,95.17
2018-03-08T01:37:42.160Z,95.31
2018-03-08T01:39:09.213Z,95.56
2018-03-08T01:40:40.381Z,95.49
2018-03-08T01:42:07.384Z,95.11
2018-03-08T01:43:30.853Z,94.87
2018-03-08T01:44:57.898Z,95.10
2018-03-08T01:46:29.305Z,94.81
2018-03-08T01:47:56.488Z,94.39
2018-03-08T01:49:23.660Z,93.87
2018-03-08T01:50:50.691Z,94.08
2018-03-08T01:52:17.884Z,94.00
2018-03-08T01:53:41.010Z,94.07
2018-03-08T01:55:11.918Z,94.66
2018-03-08T01:56:35.131Z,94.47
2018-03-08T01:58:06.239Z,94.48
2018-03-08T01:59:29.430Z,94.17
2018-03-08T02:00:56.561Z,94.18
2018-03-08T02:02:23.740Z,94.14
2018-03-08T02:03:50.903Z,93.55
2018-03-08T02:05:17.990Z,93.86
2018-03-08T02:06:49.146Z,94.19
2018-03-08T02:08:12.331Z,94.09
2018-03-08T02:09:43.510Z,94.59
2018-03-08T02:11:10.607Z,94.99
2018-03-08T02:12:37.845Z,95.00
2018-03-08T02:14:04.879Z,94.58
2018-03-08T02:15:28.137Z,94.59
2018-03-08T02:16:55.131Z,94.67
2018-03-08T02:18:26.327Z,94.61
2018-03-08T02:19:53.574Z,94.36
2018-03-08T02:21:20.899Z,94.18
2018-03-08T02:22:44.030Z,94.22
2018-03-08T02:24:11.280Z,93.94
2018-03-08T02:25:42.464Z,94.13
2018-03-08T02:27:05.772Z,94.13
2018-03-08T02:28:36.782Z,94.56
2018-03-08T02:30:00.010Z,94.33
2018-03-08T02:31:31.192Z,94.82
2018-03-08T02:32:54.376Z,94.68
2018-03-08T02:34:21.403Z,94.77
2018-03-08T02:35:52.671Z,95.36
2018-03-08T02:37:19.817Z,95.16
2018-03-08T02:38:42.877Z,95.25
2018-03-08T02:40:10.133Z,94.90
2018-03-08T02:41:37.213Z,94.45
2018-03-08T02:43:08.122Z,94.31
2018-03-08T02:44:35.325Z,94.20
2018-03-08T02:45:58.512Z,94.32
2018-03-08T02:47:29.782Z,94.21
2018-03-08T02:48:53.008Z,93.98
2018-03-08T02:50:20.214Z,93.87
2018-03-08T02:51:51.409Z,94.05
2018-03-08T02:53:14.617Z,94.04
2018-03-08T02:54:45.820Z,94.05
2018-03-08T02:56:12.934Z,93.86
2018-03-08T02:57:36.026Z,93.87
2018-03-08T02:59:02.975Z,93.89
2018-03-08T03:00:30.245Z,93.81
2018-03-08T03:01:57.464Z,93.79
2018-03-08T03:03:24.511Z,93.63
2018-03-08T03:04:51.851Z,93.47
2018-03-08T03:06:22.891Z,93.46
2018-03-08T03:07:46.050Z,93.38
2018-03-08T03:09:13.226Z,93.38
2018-03-08T03:10:40.303Z,93.35
2018-03-08T03:12:07.545Z,93.33
2018-03-08T03:13:34.638Z,93.27
2018-03-08T03:15:05.777Z,93.38
2018-03-08T03:16:28.906Z,93.44
2018-03-08T03:17:55.992Z,93.46
2018-03-08T03:19:23.265Z,93.34
2018-03-08T03:20:50.515Z,93.22
2018-03-08T03:22:21.377Z,93.50
2018-03-08T03:23:48.550Z,93.37
2018-03-08T03:25:15.644Z,93.27
2018-03-08T03:26:38.862Z,93.26
2018-03-08T03:28:10.003Z,93.25
2018-03-08T03:29:37.199Z,93.18
2018-03-08T03:31:04.562Z,93.15
2018-03-08T03:32:27.706Z,93.08
2018-03-08T03:33:58.816Z,93.06
2018-03-08T03:35:21.939Z,93.06
2018-03-08T03:36:48.942Z,93.03
2018-03-08T03:38:20.109Z,93.02
2018-03-08T03:39:43.390Z,93.07
2018-03-08T03:41:10.456Z,92.96
2018-03-08T03:42:41.628Z,93.02
2018-03-08T03:44:08.687Z,92.99
2018-03-08T03:45:31.900Z,92.92
2018-03-08T03:46:59.006Z,93.01
2018-03-08T03:48:26.234Z,93.02
2018-03-08T03:49:57.557Z,92.97
2018-03-08T03:51:24.695Z,92.88
2018-03-08T03:52:47.918Z,92.85
2018-03-08T03:54:15.095Z,92.74
2018-03-08T03:55:42.255Z,92.74
2018-03-08T03:57:09.270Z,92.74
2018-03-08T03:58:36.621Z,92.67
2018-03-08T04:00:07.800Z,92.60
2018-03-08T04:01:31.017Z,92.55
2018-03-08T04:02:58.099Z,92.62
2018-03-08T04:04:25.137Z,92.65
2018-03-08T04:05:52.350Z,92.66
2018-03-08T04:07:23.502Z,92.66
2018-03-08T04:08:50.739Z,92.68
2018-03-08T04:10:17.897Z,92.71
2018-03-08T04:11:41.041Z,92.73
2018-03-08T04:13:12.320Z,92.78
2018-03-08T04:14:35.271Z,92.91
2018-03-08T04:16:02.300Z,92.89
2018-03-08T04:17:33.607Z,92.89
2018-03-08T04:19:00.747Z,92.90
2018-03-08T04:20:23.930Z,92.91
2018-03-08T04:21:51.035Z,92.82
2018-03-08T04:23:18.159Z,92.91
2018-03-08T04:24:45.190Z,92.86
2018-03-08T04:26:12.425Z,92.89
2018-03-08T04:27:39.749Z,92.97
2018-03-08T04:29:06.693Z,92.99
2018-03-08T04:30:33.832Z,92.97
2018-03-08T04:32:01.060Z,92.95
2018-03-08T04:33:28.301Z,92.81
2018-03-08T04:34:55.396Z,92.78
2018-03-08T04:36:26.512Z,92.76
2018-03-08T04:37:49.736Z,92.75
2018-03-08T04:39:16.866Z,92.82
2018-03-08T04:40:48.108Z,92.75
2018-03-08T04:42:15.074Z,92.87
2018-03-08T04:43:38.305Z,92.90
2018-03-08T04:45:05.456Z,92.86
2018-03-08T04:46:32.544Z,92.90
2018-03-08T04:47:59.771Z,92.96
2018-03-08T04:49:27.123Z,92.89
2018-03-08T04:50:58.034Z,92.88
2018-03-08T04:52:21.142Z,92.82
2018-03-08T04:53:52.252Z,92.75
2018-03-08T04:55:19.534Z,92.81
2018-03-08T04:56:46.627Z,92.73
2018-03-08T04:58:13.801Z,92.86
2018-03-08T04:59:37.005Z,92.77
2018-03-08T05:01:08.187Z,92.83
2018-03-08T05:02:35.148Z,92.92
2018-03-08T05:03:58.333Z,92.89
2018-03-08T05:05:25.538Z,92.96
2018-03-08T05:06:52.829Z,92.96
2018-03-08T05:08:20.064Z,92.94
2018-03-08T05:09:51.302Z,92.96
2018-03-08T05:11:18.384Z,92.90
2018-03-08T05:12:41.515Z,92.94
2018-03-08T05:14:12.634Z,92.93
2018-03-08T05:15:39.821Z,92.83
2018-03-08T05:17:02.896Z,92.95
2018-03-08T05:18:30.026Z,93.05
2018-03-08T05:19:57.142Z,93.11
2018-03-08T05:21:24.643Z,93.07
2018-03-08T05:22:51.891Z,93.14
2018-03-08T05:24:18.807Z,93.13
2018-03-08T05:25:46.002Z,93.25
2018-03-08T05:27:17.082Z,93.19
2018-03-08T05:28:40.269Z,93.24
2018-03-08T05:30:07.462Z,93.08
2018-03-08T05:31:38.572Z,93.10
2018-03-08T05:33:05.832Z,93.14
2018-03-08T05:34:33.137Z,93.15
2018-03-08T05:35:56.265Z,93.10
2018-03-08T05:37:23.529Z,92.97
2018-03-08T05:38:54.622Z,93.02
2018-03-08T05:40:17.623Z,93.04
2018-03-08T05:41:44.920Z,93.06
2018-03-08T05:43:16.142Z,93.09
2018-03-08T05:44:39.516Z,93.11
2018-03-08T05:46:06.445Z,93.06
2018-03-08T05:47:37.534Z,93.03
2018-03-08T05:49:04.895Z,92.94
2018-03-08T05:50:28.092Z,93.01
2018-03-08T05:51:55.284Z,93.03
2018-03-08T05:53:22.509Z,92.90
2018-03-08T05:54:53.635Z,92.96
2018-03-08T05:56:20.783Z,92.92
2018-03-08T05:57:44.141Z,92.86
2018-03-08T05:59:11.388Z,92.81
2018-03-08T06:00:38.394Z,92.76
2018-03-08T06:02:09.441Z,92.77
2018-03-08T06:03:36.269Z,92.77
2018-03-08T06:05:03.543Z,92.78
2018-03-08T06:06:30.643Z,92.78
2018-03-08T06:07:53.767Z,92.77
2018-03-08T06:09:25.185Z,92.92
2018-03-08T06:10:52.263Z,92.85
2018-03-08T06:12:15.595Z,92.94
2018-03-08T06:13:42.463Z,92.96
2018-03-08T06:15:09.788Z,93.03
2018-03-08T06:16:36.962Z,93.14
2018-03-08T06:18:03.770Z,93.05
2018-03-08T06:19:35.023Z,93.05
2018-03-08T06:20:58.233Z,93.02
2018-03-08T06:22:25.616Z,92.92
2018-03-08T06:23:56.782Z,92.92
2018-03-08T06:25:24.014Z,92.82
2018-03-08T06:26:47.234Z,92.91
2018-03-08T06:28:18.396Z,92.82
2018-03-08T06:29:41.448Z,92.75
2018-03-08T06:31:08.629Z,92.67
2018-03-08T06:32:35.688Z,92.66
2018-03-08T06:34:02.810Z,92.59
2018-03-08T06:35:30.037Z,92.65
2018-03-08T06:36:57.354Z,92.56
2018-03-08T06:38:24.366Z,92.71
2018-03-08T06:39:51.568Z,92.93
2018-03-08T06:41:22.808Z,93.00
2018-03-08T06:42:50.027Z,93.15
2018-03-08T06:44:13.027Z,93.16
2018-03-08T06:45:40.243Z,93.10
2018-03-08T06:47:11.267Z,93.04
2018-03-08T06:48:34.323Z,92.99
2018-03-08T06:50:05.611Z,93.01
2018-03-08T06:51:32.607Z,92.85
2018-03-08T06:52:59.781Z,92.94
2018-03-08T06:54:23.129Z,92.89
2018-03-08T06:55:54.201Z,92.91
2018-03-08T06:57:21.354Z,93.00
2018-03-08T06:58:44.527Z,93.06
2018-03-08T07:00:11.912Z,93.13
2018-03-08T07:01:42.905Z,93.15
2018-03-08T07:03:10.052Z,93.08
2018-03-08T07:04:33.202Z,93.05
2018-03-08T07:06:00.239Z,93.20
2018-03-08T07:07:27.514Z,93.16
2018-03-08T07:08:54.734Z,93.32
2018-03-08T07:10:21.950Z,93.29
2018-03-08T07:11:53.275Z,93.24
2018-03-08T07:13:16.378Z,93.25
2018-03-08T07:14:47.643Z,93.36
2018-03-08T07:16:15.729Z,93.34
2018-03-08T07:17:37.952Z,93.34
2018-03-08T07:19:09.278Z,93.29
2018-03-08T07:20:32.083Z,93.07
2018-03-08T07:22:03.255Z,92.73
2018-03-08T07:23:30.336Z,92.59
2018-03-08T07:24:53.441Z,92.59
2018-03-08T07:26:24.561Z,92.59
2018-03-08T07:27:47.885Z,92.63
2018-03-08T07:29:14.967Z,92.60
2018-03-08T07:30:42.002Z,92.73
2018-03-08T07:32:09.317Z,92.88
2018-03-08T07:33:40.492Z,92.86
2018-03-08T07:35:03.742Z,92.75
2018-03-08T07:36:34.886Z,92.53
2018-03-08T07:38:02.073Z,92.50
2018-03-08T07:39:29.174Z,92.46
2018-03-08T07:40:56.357Z,92.53
2018-03-08T07:42:19.486Z,92.55
2018-03-08T07:43:50.586Z,92.49
2018-03-08T07:45:13.935Z,92.34
2018-03-08T07:46:41.193Z,92.39
2018-03-08T07:48:12.175Z,92.19
2018-03-08T07:49:39.263Z,92.46
2018-03-08T07:51:02.368Z,92.38
2018-03-08T07:52:29.565Z,92.39
2018-03-08T07:54:00.521Z,92.35
2018-03-08T07:55:23.839Z,92.42
2018-03-08T07:56:55.122Z,92.82
2018-03-08T07:58:18.179Z,92.83
2018-03-08T07:59:49.281Z,92.74
2018-03-08T08:01:12.421Z,92.77
2018-03-08T08:02:43.578Z,92.84
2018-03-08T08:04:10.513Z,92.72
2018-03-08T08:05:37.611Z,92.87
2018-03-08T08:07:04.734Z,93.01
2018-03-08T08:08:27.835Z,93.02
2018-03-08T08:09:55.048Z,92.94
2018-03-08T08:11:22.271Z,93.01
2018-03-08T08:12:53.323Z,92.73
2018-03-08T08:14:16.439Z,93.03
2018-03-08T08:15:43.683Z,93.12
2018-03-08T08:17:10.967Z,93.16
2018-03-08T08:18:38.178Z,93.17
2018-03-08T08:20:09.334Z,93.38
2018-03-08T08:21:36.124Z,93.22
2018-03-08T08:23:03.402Z,93.38
2018-03-08T08:24:26.616Z,93.30
2018-03-08T08:25:53.801Z,93.41
2018-03-08T08:27:24.873Z,93.20
2018-03-08T08:28:52.065Z,93.28
2018-03-08T08:30:15.283Z,93.30
2018-03-08T08:31:46.526Z,93.41
2018-03-08T08:33:13.801Z,93.17
2018-03-08T08:36:04.169Z,92.76
2018-03-08T08:37:35.531Z,92.78
2018-03-08T08:38:58.677Z,92.77
2018-03-08T08:40:25.924Z,92.86
2018-03-08T08:41:53.144Z,93.05
2018-03-08T08:43:20.304Z,92.94
2018-03-08T08:44:51.553Z,92.98
2018-03-08T08:46:18.625Z,92.64
2018-03-08T08:47:41.826Z,92.81
2018-03-08T08:49:08.810Z,92.52
2018-03-08T08:50:40.135Z,92.27
2018-03-08T08:52:03.209Z,92.62
2018-03-08T08:53:30.344Z,92.50
2018-03-08T08:54:57.438Z,92.57
2018-03-08T08:56:28.578Z,92.52
2018-03-08T08:57:51.762Z,92.35
2018-03-08T08:59:19.091Z,92.04
2018-03-08T09:00:50.178Z,92.08
2018-03-08T09:02:17.150Z,92.22
2018-03-08T09:03:44.446Z,92.07
2018-03-08T09:05:11.845Z,92.44
2018-03-08T09:06:34.869Z,92.45
2018-03-08T09:08:02.010Z,92.43
2018-03-08T09:09:33.268Z,92.54
2018-03-08T09:10:56.512Z,92.54
2018-03-08T09:12:23.679Z,92.67
2018-03-08T09:13:50.740Z,92.98
2018-03-08T09:15:17.950Z,92.94
2018-03-08T09:16:49.144Z,93.39
2018-03-08T09:18:16.355Z,93.57
2018-03-08T09:19:39.586Z,93.76
2018-03-08T09:21:10.622Z,93.91
2018-03-08T09:22:33.768Z,93.91
2018-03-08T09:24:01.003Z,93.85
2018-03-08T09:25:28.150Z,93.66
2018-03-08T09:26:59.201Z,93.70
2018-03-08T09:28:22.437Z,93.62
2018-03-08T09:29:49.580Z,93.42
2018-03-08T09:31:20.775Z,93.48
2018-03-08T09:32:43.905Z,93.41
2018-03-08T09:34:15.051Z,93.81
2018-03-08T09:35:38.409Z,94.08
2018-03-08T09:37:09.452Z,94.11
2018-03-08T09:38:32.447Z,94.10
2018-03-08T09:40:03.508Z,93.84
2018-03-08T09:41:26.823Z,93.83
2018-03-08T09:42:54.196Z,93.70
2018-03-08T09:44:21.392Z,93.59
2018-03-08T09:45:52.549Z,93.48
2018-03-08T09:47:15.817Z,93.64
2018-03-08T09:48:42.848Z,93.48
2018-03-08T09:50:10.109Z,93.50
2018-03-08T09:51:37.247Z,93.42
2018-03-08T09:53:04.551Z,93.48
2018-03-08T09:54:31.453Z,93.49
2018-03-08T09:55:58.884Z,93.51
2018-03-08T09:57:29.986Z,93.45
2018-03-08T09:58:53.181Z,93.52
2018-03-08T10:00:24.509Z,93.49
2018-03-08T10:01:51.766Z,93.67
2018-03-08T10:03:14.955Z,93.64
2018-03-08T10:04:46.161Z,93.70
2018-03-08T10:06:13.249Z,93.79
2018-03-08T10:07:40.399Z,93.79
2018-03-08T10:09:03.585Z,93.75
2018-03-08T10:10:34.906Z,93.79
2018-03-08T10:12:02.132Z,93.80
2018-03-08T10:13:29.394Z,93.95
2018-03-08T10:14:52.481Z,93.94
2018-03-08T10:16:19.704Z,93.91
2018-03-08T10:17:46.882Z,94.12
2018-03-08T10:19:18.087Z,94.10
2018-03-08T10:20:41.444Z,94.19
2018-03-08T10:22:12.728Z,94.16
2018-03-08T10:23:35.945Z,94.20
2018-03-08T10:25:03.137Z,94.09
2018-03-08T10:26:30.439Z,94.16
2018-03-08T10:27:57.572Z,94.12
2018-03-08T10:29:28.790Z,94.19
2018-03-08T10:30:56.167Z,94.22
2018-03-08T10:32:19.248Z,94.19
2018-03-08T10:33:46.399Z,94.25
2018-03-08T10:36:40.607Z,94.33
2018-03-08T10:38:07.834Z,94.34
2018-03-08T10:39:34.979Z,94.34
2018-03-08T10:41:02.194Z,94.28
2018-03-08T10:43:56.556Z,94.30
2018-03-08T10:45:23.645Z,94.40
2018-03-08T10:46:51.014Z,94.45
2018-03-08T10:48:18.259Z,94.44
2018-03-08T10:49:49.521Z,94.40
2018-03-08T10:51:12.640Z,94.49
2018-03-08T10:52:39.666Z,94.40
2018-03-08T10:54:10.966Z,94.45
2018-03-08T10:55:34.188Z,94.33
2018-03-08T10:57:05.516Z,94.32
2018-03-08T10:58:33.250Z,94.05
2018-03-08T10:59:55.980Z,93.83
2018-03-08T11:01:27.260Z,93.42
2018-03-08T11:02:54.495Z,93.08
2018-03-08T11:04:21.715Z,92.91
2018-03-08T11:05:44.839Z,92.72
2018-03-08T11:07:12.094Z,92.70
2018-03-08T11:08:39.182Z,92.80
2018-03-08T11:10:10.357Z,92.90
2018-03-08T11:11:33.527Z,92.94
2018-03-08T11:13:04.921Z,92.97
2018-03-08T11:14:28.284Z,93.11
2018-03-08T11:15:55.462Z,93.15
2018-03-08T11:17:26.692Z,93.44
2018-03-08T11:18:49.881Z,93.58
2018-03-08T11:20:20.881Z,93.58
2018-03-08T11:21:44.384Z,93.50
2018-03-08T11:23:11.558Z,93.57
2018-03-08T11:24:38.779Z,93.53
2018-03-08T11:26:06.009Z,93.77
2018-03-08T11:27:33.277Z,93.96
2018-03-08T11:29:04.339Z,94.10
2018-03-08T11:30:27.396Z,94.05
2018-03-08T11:31:54.647Z,94.15
2018-03-08T11:33:25.830Z,94.08
2018-03-08T11:34:49.117Z,94.05
2018-03-08T11:36:16.195Z,94.08
2018-03-08T11:37:43.277Z,93.95
2018-03-08T11:39:10.611Z,93.92
2018-03-08T11:40:41.769Z,93.85
2018-03-08T11:42:09.276Z,93.83
2018-03-08T11:43:32.247Z,93.81
2018-03-08T11:45:03.381Z,93.68
2018-03-08T11:46:26.712Z,93.68
2018-03-08T11:47:53.868Z,93.74
2018-03-08T11:49:25.022Z,93.84
2018-03-08T11:50:48.119Z,94.00
2018-03-08T11:52:19.073Z,94.36
2018-03-08T11:53:42.542Z,94.39
2018-03-08T11:55:09.703Z,94.51
2018-03-08T11:56:36.930Z,94.47
2018-03-08T11:58:04.162Z,94.67
2018-03-08T11:59:31.575Z,94.58
2018-03-08T12:01:02.694Z,94.42
2018-03-08T12:02:25.883Z,94.38
2018-03-08T12:03:53.127Z,94.33
2018-03-08T12:05:24.222Z,94.20
2018-03-08T12:06:47.403Z,94.06
2018-03-08T12:08:14.574Z,93.98
2018-03-08T12:09:41.968Z,93.87
2018-03-08T12:11:09.169Z,93.88
2018-03-08T12:12:40.281Z,94.06
2018-03-08T12:14:07.396Z,94.02
2018-03-08T12:15:30.745Z,94.02
2018-03-08T12:17:01.817Z,93.93
2018-03-08T12:18:29.181Z,93.98
2018-03-08T12:19:52.284Z,93.94
2018-03-08T12:21:23.620Z,93.84
2018-03-08T12:22:47.023Z,93.83
2018-03-08T12:24:13.894Z,93.75
2018-03-08T12:25:45.202Z,93.92
2018-03-08T12:27:12.483Z,93.98
2018-03-08T12:28:39.563Z,94.01
2018-03-08T12:30:02.648Z,94.59
2018-03-08T12:31:33.674Z,94.74
2018-03-08T12:32:56.919Z,94.63
2018-03-08T12:34:24.235Z,94.64
2018-03-08T12:35:51.280Z,94.65
2018-03-08T12:37:18.399Z,94.80
2018-03-08T12:38:45.577Z,94.71
2018-03-08T12:40:12.506Z,94.67
2018-03-08T12:41:39.665Z,94.51
2018-03-08T12:43:07.049Z,94.45
2018-03-08T12:44:38.112Z,94.35
2018-03-08T12:46:05.165Z,94.42
2018-03-08T12:47:28.444Z,94.35
2018-03-08T12:48:55.629Z,94.35
2018-03-08T12:50:22.941Z,94.24
2018-03-08T12:51:50.291Z,94.65
2018-03-08T12:53:21.470Z,94.63
2018-03-08T12:54:44.378Z,94.68
2018-03-08T12:56:15.511Z,94.71
2018-03-08T12:57:38.763Z,94.71
2018-03-08T12:59:09.945Z,94.82
2018-03-08T13:00:33.048Z,94.48
2018-03-08T13:02:00.242Z,94.48
2018-03-08T13:03:27.507Z,94.36
2018-03-08T13:04:54.566Z,94.33
2018-03-08T13:06:21.693Z,94.29
2018-03-08T13:07:48.898Z,94.22
2018-03-08T13:09:19.982Z,94.33
2018-03-08T13:10:43.058Z,94.34
2018-03-08T13:12:14.304Z,94.35
2018-03-08T13:13:37.651Z,94.41
2018-03-08T13:15:08.792Z,94.47
2018-03-08T13:16:32.124Z,94.39
2018-03-08T13:17:59.394Z,94.51
2018-03-08T13:19:26.545Z,94.56
2018-03-08T13:20:53.546Z,94.63
2018-03-08T13:22:20.753Z,94.50
2018-03-08T13:23:48.055Z,94.55
2018-03-08T13:25:15.365Z,94.46
2018-03-08T13:26:42.603Z,94.42
2018-03-08T13:28:09.875Z,94.50
2018-03-08T13:29:36.941Z,94.38
2018-03-08T13:31:04.095Z,94.43
2018-03-08T13:32:31.394Z,94.33
2018-03-08T13:34:02.626Z,94.44
2018-03-08T13:35:30.025Z,94.35
2018-03-08T13:36:53.168Z,94.54
2018-03-08T13:38:20.193Z,94.55
2018-03-08T13:39:51.233Z,94.56
2018-03-08T13:41:14.577Z,94.66
2018-03-08T13:42:45.835Z,94.75
2018-03-08T13:44:12.910Z,94.83
2018-03-08T13:45:35.998Z,94.78
2018-03-08T13:47:03.104Z,94.71
2018-03-08T13:48:30.221Z,94.61
2018-03-08T13:49:57.673Z,94.62
2018-03-08T13:51:28.828Z,94.54
2018-03-08T13:52:56.078Z,94.59
2018-03-08T13:54:19.285Z,94.60
2018-03-08T13:55:51.567Z,94.55
2018-03-08T13:57:17.673Z,94.50
2018-03-08T13:58:44.888Z,94.68
2018-03-08T14:00:08.191Z,94.70
2018-03-08T14:01:35.437Z,94.65
2018-03-08T14:03:02.596Z,94.44
2018-03-08T14:04:29.736Z,94.43
2018-03-08T14:06:00.988Z,94.51
2018-03-08T14:07:28.265Z,94.20
2018-03-08T14:08:55.592Z,94.27
2018-03-08T14:10:18.424Z,93.83
2018-03-08T14:11:45.773Z,93.64
2018-03-08T14:13:13.119Z,93.59
2018-03-08T14:14:40.350Z,93.29
2018-03-08T14:16:07.571Z,93.24
2018-03-08T14:17:34.634Z,93.42
2018-03-08T14:19:01.813Z,92.93
2018-03-08T14:20:29.164Z,92.95
2018-03-08T14:21:56.281Z,92.76
2018-03-08T14:23:23.518Z,92.36
2018-03-08T14:24:50.755Z,92.25
2018-03-08T14:26:17.839Z,92.31
2018-03-08T14:27:44.873Z,92.50
2018-03-08T14:29:11.971Z,92.55
2018-03-08T14:30:39.208Z,92.36
2018-03-08T14:32:10.361Z,91.78
2018-03-08T14:33:33.389Z,91.54
2018-03-08T14:35:00.525Z,91.49
2018-03-08T14:36:27.829Z,91.29
2018-03-08T14:37:59.204Z,91.13
2018-03-08T14:39:22.573Z,91.26
2018-03-08T14:40:49.947Z,91.38
2018-03-08T14:42:21.009Z,91.04
2018-03-08T14:43:44.150Z,90.93
2018-03-08T14:45:11.087Z,90.66
2018-03-08T14:46:38.240Z,90.60
2018-03-08T14:48:05.514Z,90.40
2018-03-08T14:49:32.581Z,90.36
2018-03-08T14:50:59.943Z,90.40
2018-03-08T14:52:27.241Z,90.31
2018-03-08T14:53:54.472Z,89.93
2018-03-08T14:55:25.753Z,89.65
2018-03-08T14:56:48.935Z,89.56
2018-03-08T14:58:15.857Z,89.68
2018-03-08T14:59:42.553Z,89.77
2018-03-08T15:01:13.625Z,89.94
2018-03-08T15:02:40.512Z,90.13
2018-03-08T15:04:03.524Z,90.16
2018-03-08T15:05:34.764Z,90.33
2018-03-08T15:07:01.807Z,90.38
2018-03-08T15:08:25.202Z,90.63
2018-03-08T15:09:52.363Z,90.69
2018-03-08T15:11:23.524Z,90.69
2018-03-08T15:12:46.814Z,90.71
2018-03-08T15:14:17.968Z,90.78
2018-03-08T15:15:41.307Z,90.74
2018-03-08T15:17:12.431Z,90.86
2018-03-08T15:18:39.669Z,90.85
2018-03-08T15:20:02.653Z,91.03
2018-03-08T15:21:29.877Z,91.07
2018-03-08T15:23:01.197Z,91.30
2018-03-08T15:24:24.557Z,91.49
2018-03-08T15:25:51.908Z,91.49
2018-03-08T15:27:23.420Z,91.64
2018-03-08T15:28:50.556Z,91.53
2018-03-08T15:30:13.666Z,91.48
2018-03-08T15:31:40.963Z,91.44
2018-03-08T15:33:08.159Z,91.67
2018-03-08T15:34:35.291Z,91.74
2018-03-08T15:36:02.457Z,91.73
2018-03-08T15:37:29.843Z,91.72
2018-03-08T15:38:57.064Z,91.74
2018-03-08T15:40:24.460Z,91.77
2018-03-08T15:41:55.703Z,91.71
2018-03-08T15:43:19.062Z,91.73
2018-03-08T15:44:46.334Z,91.66
2018-03-08T15:46:17.473Z,91.60
2018-03-08T15:47:40.833Z,91.54
2018-03-08T15:49:07.947Z,91.61
2018-03-08T15:50:35.227Z,91.68
2018-03-08T15:52:06.598Z,91.82
2018-03-08T15:53:29.910Z,92.05
2018-03-08T15:54:57.112Z,92.11
2018-03-08T15:56:24.267Z,92.15
2018-03-08T15:57:51.564Z,92.26
2018-03-08T15:59:18.703Z,92.32
2018-03-08T16:00:50.103Z,92.31
2018-03-08T16:02:13.338Z,92.33
2018-03-08T16:03:44.745Z,92.40
2018-03-08T16:05:11.875Z,92.34
2018-03-08T16:06:35.096Z,92.46
2018-03-08T16:08:02.103Z,92.59
2018-03-08T16:09:29.386Z,92.68
2018-03-08T16:10:56.574Z,92.74
2018-03-08T16:12:23.821Z,92.91
2018-03-08T16:13:51.077Z,93.00
2018-03-08T16:15:22.319Z,93.16
2018-03-08T16:16:45.563Z,93.25
2018-03-08T16:18:16.833Z,93.20
2018-03-08T16:19:44.102Z,93.24
2018-03-08T16:21:11.212Z,93.27
2018-03-08T16:22:34.284Z,93.18
2018-03-08T16:24:01.289Z,93.46
2018-03-08T16:25:28.618Z,93.66
2018-03-08T16:26:59.677Z,93.98
2018-03-08T16:28:26.907Z,94.20
2018-03-08T16:29:54.051Z,94.11
2018-03-08T16:31:17.384Z,93.98
2018-03-08T16:32:48.463Z,93.90
2018-03-08T16:34:15.708Z,93.57
2018-03-08T16:35:42.983Z,93.78
2018-03-08T16:37:10.222Z,94.16
2018-03-08T16:38:37.366Z,94.24
2018-03-08T16:40:00.610Z,93.92
2018-03-08T16:41:27.776Z,93.97
2018-03-08T16:42:58.952Z,94.00
2018-03-08T16:44:22.220Z,94.01
2018-03-08T16:45:49.393Z,93.79
2018-03-08T16:47:20.720Z,93.91
2018-03-08T16:48:43.773Z,93.27
2018-03-08T16:50:11.107Z,94.07
2018-03-08T16:51:42.303Z,94.46
2018-03-08T16:53:09.448Z,94.66
2018-03-08T16:54:32.555Z,94.95
2018-03-08T16:56:03.840Z,94.11
2018-03-08T16:57:27.100Z,93.72
2018-03-08T16:58:54.190Z,93.97
2018-03-08T17:00:21.469Z,94.42
2018-03-08T17:01:52.398Z,94.93
2018-03-08T17:03:15.634Z,95.85
2018-03-08T17:04:42.949Z,95.99
2018-03-08T17:06:10.317Z,95.78
2018-03-08T17:07:41.564Z,95.98
2018-03-08T17:09:08.818Z,95.95
2018-03-08T17:10:32.045Z,95.81
2018-03-08T17:12:04.320Z,95.70
2018-03-08T17:13:30.513Z,95.59
2018-03-08T17:14:53.810Z,95.65
2018-03-08T17:16:24.813Z,95.77
2018-03-08T17:17:48.045Z,95.95
2018-03-08T17:19:15.407Z,95.95
2018-03-08T17:20:46.652Z,95.99
2018-03-08T17:22:13.798Z,95.82
2018-03-08T17:23:41.027Z,95.82
2018-03-08T17:25:08.241Z,96.08
2018-03-08T17:26:35.565Z,96.19
2018-03-08T17:27:58.723Z,96.00
2018-03-08T17:29:25.921Z,95.95
2018-03-08T17:30:53.123Z,95.94
2018-03-08T17:32:24.301Z,95.78
2018-03-08T17:33:51.415Z,95.67
2018-03-08T17:35:14.672Z,95.65
2018-03-08T17:36:45.736Z,95.44
2018-03-08T17:38:09.025Z,95.45
2018-03-08T17:39:36.199Z,94.69
2018-03-08T17:41:03.372Z,94.78
2018-03-08T17:42:34.429Z,94.96
2018-03-08T17:43:57.673Z,95.09
2018-03-08T17:45:24.700Z,95.01
2018-03-08T17:46:51.283Z,95.20
2018-03-08T17:48:22.308Z,94.93
2018-03-08T17:49:49.166Z,94.69
2018-03-08T17:51:12.281Z,94.58
2018-03-08T17:52:39.455Z,94.23
2018-03-08T17:54:06.598Z,94.74
2018-03-08T17:55:33.769Z,94.89
2018-03-08T17:57:00.858Z,94.85
2018-03-08T17:58:32.186Z,94.72
2018-03-08T17:59:55.292Z,94.62
2018-03-08T18:01:22.609Z,94.32
2018-03-08T18:02:49.960Z,94.09
2018-03-08T18:04:17.278Z,93.89
2018-03-08T18:05:44.502Z,93.63
2018-03-08T18:07:15.748Z,93.44
2018-03-08T18:08:42.878Z,93.01
2018-03-08T18:10:10.068Z,92.98
2018-03-08T18:11:33.267Z,92.73
2018-03-08T18:13:00.485Z,92.54
2018-03-08T18:14:31.829Z,92.20
2018-03-08T18:15:55.027Z,91.75
2018-03-08T18:17:26.283Z,91.61
2018-03-08T18:18:53.662Z,91.49
2018-03-08T18:20:17.007Z,91.16
2018-03-08T18:21:44.178Z,91.05
2018-03-08T18:23:11.492Z,90.95
2018-03-08T18:24:38.772Z,90.77
2018-03-08T18:26:06.022Z,90.55
2018-03-08T18:27:37.102Z,90.45
2018-03-08T18:29:00.344Z,90.16
2018-03-08T18:30:27.559Z,90.10
2018-03-08T18:31:54.713Z,89.71
2018-03-08T18:33:25.927Z,89.67
2018-03-08T18:34:49.313Z,89.48
2018-03-08T18:36:16.570Z,89.45
2018-03-08T18:37:47.612Z,89.13
2018-03-08T18:39:14.769Z,89.22
2018-03-08T18:40:41.902Z,89.04
2018-03-08T18:42:04.936Z,89.13
2018-03-08T18:43:32.326Z,88.66
2018-03-08T18:45:03.516Z,89.07
2018-03-08T18:46:30.563Z,88.69
2018-03-08T18:47:53.634Z,88.77